TimeEST,TemperatureF,Dew PointF,Humidity,Sea Level PressureIn,VisibilityMPH,Wind Direction,Wind SpeedMPH,Gust SpeedMPH,PrecipitationIn,Events,Conditions,WindDirDegrees,DateUTC
12:54 AM,33.1,28.9,85,29.86,10.0,SSW,9.2,-,N/A,,Clear,210,2013-02-14 05:54:00
1:54 AM,32.0,30.0,92,29.85,8.0,SSW,9.2,-,N/A,,Clear,210,2013-02-14 06:54:00
2:54 AM,32.0,30.0,92,29.85,7.0,SSW,9.2,-,N/A,,Scattered Clouds,200,2013-02-14 07:54:00
3:05 AM,32.0,30.2,93,29.83,7.0,SSW,8.1,-,N/A,,Mostly Cloudy,200,2013-02-14 08:05:00
3:21 AM,30.2,30.2,100,29.83,6.0,SSW,9.2,-,N/A,,Scattered Clouds,210,2013-02-14 08:21:00
3:54 AM,32.0,30.9,96,29.84,6.0,SSW,8.1,-,N/A,,Mostly Cloudy,210,2013-02-14 08:54:00
4:45 AM,32.0,30.2,93,29.81,6.0,SSW,9.2,-,N/A,,Scattered Clouds,210,2013-02-14 09:45:00
4:54 AM,32.0,30.9,96,29.83,6.0,SW,8.1,-,N/A,,Scattered Clouds,220,2013-02-14 09:54:00
5:54 AM,33.1,32.0,96,29.83,5.0,South,6.9,-,N/A,,Overcast,190,2013-02-14 10:54:00
6:37 AM,33.8,33.8,100,29.82,5.0,SSW,8.1,-,N/A,,Overcast,200,2013-02-14 11:37:00
6:54 AM,34.0,33.1,96,29.83,6.0,South,8.1,-,N/A,,Overcast,190,2013-02-14 11:54:00
7:54 AM,35.1,34.0,96,29.84,5.0,South,10.4,-,N/A,,Overcast,190,2013-02-14 12:54:00
8:49 AM,35.6,33.8,93,29.82,6.0,SSW,10.4,-,N/A,,Mostly Cloudy,200,2013-02-14 13:49:00
8:54 AM,36.0,34.0,93,29.84,6.0,South,11.5,-,N/A,,Mostly Cloudy,190,2013-02-14 13:54:00
9:54 AM,37.0,34.0,89,29.84,10.0,South,15.0,-,N/A,,Scattered Clouds,190,2013-02-14 14:54:00
10:54 AM,42.1,35.1,76,29.83,10.0,SSW,16.1,-,N/A,,Scattered Clouds,210,2013-02-14 15:54:00
11:54 AM,46.9,35.1,63,29.84,10.0,SW,23.0,28.8,N/A,,Mostly Cloudy,230,2013-02-14 16:54:00
12:07 PM,44.6,33.8,66,29.82,10.0,SW,19.6,28.8,N/A,,Mostly Cloudy,230,2013-02-14 17:07:00
12:48 PM,44.6,33.8,66,29.81,10.0,WSW,20.7,-,N/A,,Scattered Clouds,240,2013-02-14 17:48:00
12:54 PM,45.0,34.0,65,29.83,10.0,WSW,16.1,-,N/A,,Scattered Clouds,240,2013-02-14 17:54:00
1:54 PM,46.9,35.1,63,29.81,10.0,WSW,16.1,-,N/A,,Scattered Clouds,240,2013-02-14 18:54:00
2:54 PM,46.9,35.1,63,29.82,10.0,WSW,19.6,23.0,N/A,,Mostly Cloudy,240,2013-02-14 19:54:00
3:54 PM,48.0,34.0,58,29.84,10.0,West,20.7,31.1,N/A,,Mostly Cloudy,260,2013-02-14 20:54:00
4:54 PM,46.9,34.0,61,29.87,10.0,WNW,19.6,-,N/A,,Scattered Clouds,290,2013-02-14 21:54:00
5:54 PM,43.0,30.9,62,29.91,10.0,WNW,16.1,-,N/A,,Scattered Clouds,290,2013-02-14 22:54:00
6:54 PM,39.0,30.9,73,29.95,10.0,WNW,13.8,21.9,N/A,,Scattered Clouds,290,2013-02-14 23:54:00
7:54 PM,37.9,28.9,70,29.98,10.0,WNW,10.4,-,N/A,,Partly Cloudy,300,2013-02-15 00:54:00
8:54 PM,37.9,28.9,70,29.99,10.0,WNW,12.7,-,N/A,,Mostly Cloudy,300,2013-02-15 01:54:00
9:54 PM,36.0,28.0,73,30.01,10.0,WNW,11.5,-,N/A,,Mostly Cloudy,300,2013-02-15 02:54:00
10:54 PM,33.1,27.0,78,30.01,10.0,West,9.2,-,N/A,,Scattered Clouds,270,2013-02-15 03:54:00
11:54 PM,32.0,26.1,79,30.00,10.0,WSW,5.8,-,N/A,,Scattered Clouds,250,2013-02-15 04:54:00